Umm Said, Qatar

11:06 AM AST on July 26, 2014 (GMT +0300)
Wakra (IWAKRAWA2) Elev 23 ft | 25.17 °N, 51.60 °E | Change Station

Current weather conditions updated 18 seconds ago

Clear
Clear
101.2 °F
Feels Like 126 °F
N
6.0
Wind Variable Wind from East
Gusts 10.1 mph

Today is forecast to be nearly the same temperature as yesterday.

Today
High -- | Low -- °F
--% Chance of Precip.
Yesterday
High -- | Low -- °F
Precip. -- in
4:58 AM 6:21 PM
Waning Crescent, 0% visible
Pressure 29.52 in
Visibility 6.2 miles
Clouds Clear
Heat Index 126 °F
Dew Point 81 °F
Humidity 54%
Rainfall 0.00 in
Snow Depth Not available.
UV 12 out of 12
Pollen Not available.
Air Quality Not available.
Flu Activity Not available.
METAR KQIR 260758Z 05009KT 9999 CLR 42/16 A2952 RMK AO2A SLP997 T04150159 $

More Conditions Fewer Conditions

Pressure 29.52 in
Visibility 6.2 miles
Clouds Clear
Heat Index 126 °F
Dew Point 81 °F
Humidity 54%
Rainfall 0.00 in
Snow Depth Not available.
UV 12 out of 12
Pollen Not available.
Air Quality Not available.
Flu Activity Not available.
METAR KQIR 260758Z 05009KT 9999 CLR 42/16 A2952 RMK AO2A SLP997 T04150159 $

More Conditions Fewer Conditions

10-Day Weather Forecast

Almanac

Astronomy

Jul. 26, 2014 Rise Set
Actual Time 4:58 AM AST 6:21 PM AST
Civil Twilight 4:33 AM AST 6:46 PM AST
Nautical Twilight 4:04 AM AST 7:16 PM AST
Astronomical Twilight 3:33 AM AST 7:46 PM AST
Moon 4:24 AM AST 5:49 PM AST
Length of Visible Light 14h 12m
Length of Day
13h 23m
Tomorrow will be 0m 58s shorter.
Waning Crescent, 0% of the Moon is Illuminated
Today
Waning Crescent
Jul 26
New
Aug 3
First Quarter
Aug 10
Full
Aug 17
Last Quarter

Yesterday's Extremes

Country Highs Country Lows

Community

WunderPhotos

Upload Photos

1,737,529 photos uploaded!

Nearby

Snow Depth

Not available.

Earthquake Activity

City Distance Mag. Time & Date
No recent earthquake activity has been reported nearby.
Minimum magnitude displayed is 2.5.

Coastal Water Temperatures

Place Temperature
No Stations Reporting

Nearby Weather Stations

Station Location Temp. Heat Index Dew Point Humidity Wind Precip. Elev Updated Type
Wakra, Wakra 101.2 °F 126 °F 81 °F 54% East  at  6.0 mph 0.00 in / hr 23 ft 11:06 AM AST Rapid Fire

Show More Stations Show Fewer Stations